Time;durP1;ratioP1;P1;durP2;ratioP2;P2;SDS_P1;SDS_P2;PMS_P1;PMS_P2;Temp;Humidity;BMP_temperature;BMP_pressure;BME280_temperature;BME280_humidity;BME280_pressure;Samples;Min_cycle;Max_cycle;Signal;HPM_P1;HPM_P2
2021/06/20 00:00:57;;;;;;;;;8.00;6.25;;;;;21.03;100.00;100470.06;4954330;28;48192;-48
2021/06/20 00:03:23;;;;;;;;;8.00;8.00;;;;;20.97;100.00;100474.00;4940189;28;45357;-49
2021/06/20 00:05:54;;;;;;;;;7.00;7.00;;;;;20.99;100.00;100465.91;4942607;28;45435;-51
2021/06/20 00:08:20;;;;;;;;;11.25;10.00;;;;;20.98;100.00;100470.38;4957116;28;45388;-52
2021/06/20 00:10:51;;;;;;;;;9.00;7.00;;;;;20.92;100.00;100463.59;4942423;28;45489;-52
2021/06/20 00:13:17;;;;;;;;;9.00;9.00;;;;;20.92;100.00;100471.59;4942283;28;45206;-51
2021/06/20 00:15:44;;;;;;;;;10.25;7.25;;;;;20.90;100.00;100468.16;4941529;28;45268;-51
2021/06/20 00:18:09;;;;;;;;;9.00;8.00;;;;;20.89;100.00;100462.94;4942203;28;45310;-50
2021/06/20 00:20:39;;;;;;;;;9.25;8.00;;;;;20.89;100.00;100470.94;4941953;28;46153;-48
2021/06/20 00:23:06;;;;;;;;;10.50;8.50;;;;;20.86;100.00;100463.13;4941860;28;45397;-56
2021/06/20 00:25:31;;;;;;;;;9.75;9.00;;;;;20.86;100.00;100463.97;4942228;28;45384;-55
2021/06/20 00:27:57;;;;;;;;;11.25;8.25;;;;;20.85;100.00;100464.06;4941721;28;45357;-50
2021/06/20 00:30:26;;;;;;;;;6.50;6.50;;;;;20.84;100.00;100451.66;4942289;28;45277;-51
2021/06/20 00:32:53;;;;;;;;;10.75;7.50;;;;;20.83;100.00;100449.94;4942227;28;45402;-51
2021/06/20 00:35:19;;;;;;;;;8.75;7.00;;;;;20.80;100.00;100450.16;4942135;28;45373;-50
2021/06/20 00:37:45;;;;;;;;;7.00;7.00;;;;;20.76;100.00;100452.16;4942135;28;45332;-52
2021/06/20 00:40:12;;;;;;;;;7.25;7.25;;;;;20.70;100.00;100442.66;4943688;28;46448;-48
2021/06/20 00:42:37;;;;;;;;;8.25;8.00;;;;;20.72;100.00;100446.13;4942030;28;45303;-52
2021/06/20 00:45:05;;;;;;;;;7.25;7.25;;;;;20.67;100.00;100442.03;4942243;28;45230;-49
2021/06/20 00:47:31;;;;;;;;;8.25;8.25;;;;;20.66;100.00;100449.16;4941930;28;45571;-49
2021/06/20 00:49:56;;;;;;;;;7.25;6.50;;;;;20.67;100.00;100448.19;4941732;28;45952;-50
2021/06/20 00:52:21;;;;;;;;;7.00;6.75;;;;;20.62;100.00;100443.13;4940534;28;45326;-51
2021/06/20 00:54:47;;;;;;;;;9.00;6.50;;;;;20.60;100.00;100450.41;4942098;28;45284;-52
2021/06/20 00:57:18;;;;;;;;;7.25;6.00;;;;;20.59;100.00;100458.47;4941882;28;45338;-51
2021/06/20 00:59:44;;;;;;;;;8.00;6.75;;;;;20.58;100.00;100446.09;4941756;28;46377;-51
2021/06/20 01:02:12;;;;;;;;;9.00;7.25;;;;;20.60;100.00;100446.84;4946513;28;45446;-51
2021/06/20 01:04:37;;;;;;;;;9.25;8.00;;;;;20.59;100.00;100451.34;4947868;28;45468;-51
2021/06/20 01:07:03;;;;;;;;;10.75;8.25;;;;;20.58;100.00;100448.78;4943187;28;45334;-49
2021/06/20 01:09:29;;;;;;;;;9.75;9.00;;;;;20.58;100.00;100457.63;4940388;28;48332;-51
2021/06/20 01:11:54;;;;;;;;;7.00;6.00;;;;;20.58;100.00;100457.63;4941637;28;45247;-48
2021/06/20 01:14:20;;;;;;;;;8.00;6.50;;;;;20.53;100.00;100445.53;4943079;28;45775;-51
2021/06/20 01:16:45;;;;;;;;;7.50;7.00;;;;;20.60;100.00;100465.53;4941792;28;45219;-51
2021/06/20 01:19:11;;;;;;;;;7.25;5.50;;;;;20.57;100.00;100471.94;4941241;28;45800;-52
2021/06/20 01:21:37;;;;;;;;;10.00;6.25;;;;;20.59;100.00;100469.16;4941713;28;45239;-50
2021/06/20 01:24:02;;;;;;;;;6.00;6.00;;;;;20.55;100.00;100468.50;4941771;28;45284;-51
2021/06/20 01:26:31;;;;;;;;;10.00;8.75;;;;;20.59;100.00;100463.81;4941463;28;45287;-52
2021/06/20 01:29:04;;;;;;;;;8.75;7.50;;;;;20.58;100.00;100465.63;4944289;28;46303;-52
2021/06/20 01:31:34;;;;;;;;;9.25;8.25;;;;;20.56;100.00;100470.19;4945183;28;45302;-50
2021/06/20 01:34:00;;;;;;;;;7.25;7.00;;;;;20.60;100.00;100468.22;4943759;28;45274;-50
2021/06/20 01:36:25;;;;;;;;;9.50;8.75;;;;;20.63;100.00;100462.69;4944739;28;45168;-52
2021/06/20 01:38:51;;;;;;;;;7.00;6.50;;;;;20.61;100.00;100457.44;4943308;28;48204;-50
2021/06/20 01:41:16;;;;;;;;;5.50;5.50;;;;;20.62;100.00;100461.81;4944927;28;45234;-52
2021/06/20 01:43:41;;;;;;;;;8.25;6.75;;;;;20.61;100.00;100452.09;4944842;28;45694;-51
2021/06/20 01:46:07;;;;;;;;;6.00;6.00;;;;;20.60;100.00;100452.19;4959825;28;45636;-52
2021/06/20 01:48:33;;;;;;;;;11.00;8.75;;;;;20.61;100.00;100451.25;4944588;28;45500;-51
2021/06/20 01:50:58;;;;;;;;;9.25;8.75;;;;;20.60;100.00;100439.72;4956142;28;45232;-49
2021/06/20 01:53:24;;;;;;;;;6.25;6.25;;;;;20.57;100.00;100439.91;4939468;28;45263;-50
2021/06/20 01:55:49;;;;;;;;;7.00;7.00;;;;;20.54;100.00;100432.09;4944819;28;45506;-52
2021/06/20 01:58:17;;;;;;;;;7.00;6.75;;;;;20.53;100.00;100430.38;4943279;28;45266;-52
2021/06/20 02:00:46;;;;;;;;;7.25;7.25;;;;;20.52;100.00;100435.81;4944710;28;45315;-52
2021/06/20 02:03:18;;;;;;;;;8.00;8.00;;;;;20.51;100.00;100436.75;4944514;28;45236;-50
2021/06/20 02:05:46;;;;;;;;;6.75;6.75;;;;;20.49;100.00;100435.97;4952132;28;45588;-52
2021/06/20 02:08:13;;;;;;;;;8.00;6.75;;;;;20.44;100.00;100433.59;4943006;28;45409;-50
2021/06/20 02:10:41;;;;;;;;;7.50;7.50;;;;;20.35;100.00;100427.00;4944369;28;45194;-50
2021/06/20 02:13:06;;;;;;;;;8.25;8.25;;;;;20.43;100.00;100432.72;4944134;28;45370;-52
2021/06/20 02:15:32;;;;;;;;;7.75;6.50;;;;;20.40;100.00;100451.59;4944339;28;45608;-52
2021/06/20 02:17:58;;;;;;;;;6.50;6.50;;;;;20.39;100.00;100446.34;4944202;28;46476;-50
2021/06/20 02:20:24;;;;;;;;;10.25;7.50;;;;;20.35;100.00;100448.34;4942616;28;45358;-52
2021/06/20 02:22:53;;;;;;;;;8.50;7.50;;;;;20.38;100.00;100455.31;4944256;28;45247;-50
2021/06/20 02:25:22;;;;;;;;;9.25;8.00;;;;;20.32;100.00;100455.69;4944441;28;45403;-51
2021/06/20 02:27:50;;;;;;;;;10.25;9.75;;;;;20.33;100.00;100463.59;4943532;28;45310;-51
2021/06/20 02:30:17;;;;;;;;;9.50;8.25;;;;;20.28;100.00;100463.84;4944126;28;45246;-51
2021/06/20 02:32:43;;;;;;;;;10.25;8.00;;;;;20.28;100.00;100461.19;4944055;28;45439;-51
2021/06/20 02:35:11;;;;;;;;;9.00;6.00;;;;;20.26;100.00;100448.88;4943988;28;45175;-51
2021/06/20 02:37:38;;;;;;;;;7.75;7.75;;;;;20.22;100.00;100455.38;4943690;28;45324;-53
2021/06/20 02:40:05;;;;;;;;;8.00;8.00;;;;;20.24;100.00;100456.16;4941926;28;45378;-51
2021/06/20 02:42:30;;;;;;;;;6.00;6.00;;;;;20.25;100.00;100468.50;4943660;28;45219;-52
2021/06/20 02:44:56;;;;;;;;;10.00;8.00;;;;;20.19;100.00;100456.41;4942585;28;45420;-52
2021/06/20 02:47:21;;;;;;;;;9.00;7.50;;;;;20.18;100.00;100468.03;4943724;28;45964;-52
2021/06/20 02:49:47;;;;;;;;;8.00;6.25;;;;;20.13;100.00;100459.44;4943983;28;45239;-52
2021/06/20 02:52:14;;;;;;;;;12.00;9.25;;;;;20.13;100.00;100465.59;4943819;28;45765;-53
2021/06/20 02:54:50;;;;;;;;;7.50;6.50;;;;;20.13;100.00;100464.75;4943899;28;45376;-51
2021/06/20 02:57:21;;;;;;;;;8.50;8.50;;;;;20.13;100.00;100460.28;4943501;28;47154;-49
2021/06/20 02:59:47;;;;;;;;;8.50;8.50;;;;;20.11;100.00;100462.19;4943402;28;45448;-49
2021/06/20 03:02:13;;;;;;;;;7.50;7.50;;;;;20.07;100.00;100478.47;4943703;28;45303;-51
2021/06/20 03:04:38;;;;;;;;;8.00;6.75;;;;;20.01;100.00;100462.81;4943285;28;45480;-51
2021/06/20 03:07:04;;;;;;;;;8.25;8.00;;;;;19.97;100.00;100452.34;4943397;28;46170;-50
2021/06/20 03:09:29;;;;;;;;;8.00;8.00;;;;;19.96;100.00;100447.06;4943463;28;45227;-52
2021/06/20 03:11:54;;;;;;;;;7.00;7.00;;;;;19.96;100.00;100449.72;4943660;28;45148;-50
2021/06/20 03:14:20;;;;;;;;;10.00;7.50;;;;;19.94;100.00;100448.97;4943377;28;45318;-52
2021/06/20 03:16:46;;;;;;;;;8.75;7.75;;;;;19.94;100.00;100454.31;4943547;28;45425;-52
2021/06/20 03:19:12;;;;;;;;;10.25;10.25;;;;;19.92;100.00;100458.88;4943060;28;45314;-51
2021/06/20 03:21:38;;;;;;;;;9.25;7.25;;;;;19.91;100.00;100451.81;4943541;28;45334;-50
2021/06/20 03:24:04;;;;;;;;;5.75;5.75;;;;;19.89;100.00;100459.06;4943232;28;45339;-49
2021/06/20 03:26:30;;;;;;;;;6.75;6.00;;;;;19.85;100.00;100450.38;4943416;28;45375;-52
2021/06/20 03:28:57;;;;;;;;;5.75;5.75;;;;;19.86;100.00;100449.44;4942932;28;45382;-48
2021/06/20 03:31:23;;;;;;;;;6.25;5.00;;;;;19.84;100.00;100458.47;4942230;28;45254;-48
2021/06/20 03:33:49;;;;;;;;;6.25;5.25;;;;;19.83;100.00;100462.06;4943138;28;45203;-52
2021/06/20 03:36:14;;;;;;;;;8.25;6.50;;;;;19.80;100.00;100471.94;4942779;28;45569;-52
2021/06/20 03:38:40;;;;;;;;;5.25;5.25;;;;;19.79;100.00;100454.22;4943112;28;45461;-52
2021/06/20 03:41:08;;;;;;;;;8.25;7.00;;;;;19.74;100.00;100453.63;4943264;28;45339;-50
2021/06/20 03:43:33;;;;;;;;;5.00;5.00;;;;;19.72;100.00;100447.53;4942774;28;45365;-50
2021/06/20 03:45:59;;;;;;;;;5.50;4.50;;;;;19.72;100.00;100441.31;4942951;28;45398;-52
2021/06/20 03:48:24;;;;;;;;;6.00;4.25;;;;;19.72;100.00;100451.97;4942976;28;45252;-51
2021/06/20 03:50:50;;;;;;;;;5.00;5.00;;;;;19.67;100.00;100449.56;4942891;28;45272;-52
2021/06/20 03:53:15;;;;;;;;;4.50;4.50;;;;;19.68;100.00;100450.44;4942966;28;45151;-51
2021/06/20 03:55:41;;;;;;;;;4.00;3.75;;;;;19.61;100.00;100453.47;4957699;28;46829;-51
2021/06/20 03:58:06;;;;;;;;;3.00;3.00;;;;;19.58;100.00;100450.09;4942698;28;45207;-53
2021/06/20 04:00:37;;;;;;;;;3.50;3.50;;;;;19.57;100.00;100459.91;4942938;28;45260;-50
2021/06/20 04:03:04;;;;;;;;;3.00;2.25;;;;;19.47;100.00;100470.22;4942589;28;45322;-53
2021/06/20 04:05:29;;;;;;;;;2.50;2.50;;;;;19.45;100.00;100463.28;4942455;28;45315;-51
2021/06/20 04:07:54;;;;;;;;;2.00;2.00;;;;;19.36;100.00;100453.97;4942475;28;45367;-51
2021/06/20 04:10:20;;;;;;;;;3.75;3.75;;;;;19.41;100.00;100475.06;4942968;28;45429;-52
2021/06/20 04:12:45;;;;;;;;;3.75;2.75;;;;;19.40;100.00;100470.66;4942439;28;45309;-51
2021/06/20 04:15:11;;;;;;;;;2.75;2.75;;;;;19.40;100.00;100478.66;4942603;28;45461;-50
2021/06/20 04:17:36;;;;;;;;;3.50;2.00;;;;;19.40;100.00;100481.31;4942417;28;45176;-50
2021/06/20 04:20:06;;;;;;;;;3.50;3.00;;;;;19.41;100.00;100488.38;4942447;28;45409;-52
2021/06/20 04:22:32;;;;;;;;;3.00;3.00;;;;;19.41;100.00;100486.56;4942379;28;45458;-51
2021/06/20 04:24:57;;;;;;;;;4.00;4.00;;;;;19.40;100.00;100490.16;4942347;28;45320;-52
2021/06/20 04:27:23;;;;;;;;;2.00;2.00;;;;;19.42;100.00;100495.41;4942079;28;45299;-52
2021/06/20 04:29:48;;;;;;;;;3.00;3.00;;;;;19.41;100.00;100489.22;4942640;28;45307;-50
2021/06/20 04:32:13;;;;;;;;;5.50;4.50;;;;;19.42;100.00;100488.28;4942252;28;45541;-53
2021/06/20 04:34:39;;;;;;;;;4.25;4.00;;;;;19.40;100.00;100495.47;4942123;28;46267;-49
2021/06/20 04:37:04;;;;;;;;;5.50;4.00;;;;;19.40;100.00;100495.47;4942075;28;45235;-51
2021/06/20 04:39:29;;;;;;;;;4.00;4.00;;;;;19.38;100.00;100491.19;4942547;28;45749;-51
2021/06/20 04:41:55;;;;;;;;;3.75;3.00;;;;;19.34;100.00;100495.81;4942124;28;45428;-52
2021/06/20 04:47:05;;;;;;;;;8.75;3.25;;;;;19.27;100.00;100495.31;4941995;28;45426;-53
2021/06/20 04:49:30;;;;;;;;;3.00;2.00;;;;;19.26;100.00;100490.91;4941975;28;45216;-53
2021/06/20 04:51:56;;;;;;;;;3.25;2.00;;;;;19.27;100.00;100491.75;4941914;28;45583;-53
2021/06/20 04:54:21;;;;;;;;;4.50;3.00;;;;;19.23;100.00;100496.44;4942281;28;45358;-53
2021/06/20 04:56:47;;;;;;;;;4.00;2.00;;;;;19.28;100.00;100506.81;4941685;28;45152;-51
2021/06/20 04:59:12;;;;;;;;;2.50;2.50;;;;;19.26;100.00;100508.72;4942294;28;45164;-53
2021/06/20 05:01:38;;;;;;;;;6.25;4.00;;;;;19.20;100.00;100501.91;4941583;28;45306;-52
2021/06/20 05:04:07;;;;;;;;;4.50;2.00;;;;;19.19;100.00;100499.34;4941817;28;46211;-51
2021/06/20 05:06:33;;;;;;;;;2.00;2.00;;;;;19.20;100.00;100498.38;4941804;28;45733;-53
2021/06/20 05:08:58;;;;;;;;;4.75;3.50;;;;;19.18;100.00;100495.78;4956922;28;45422;-50
2021/06/20 05:11:24;;;;;;;;;2.50;2.50;;;;;19.23;100.00;100479.56;4941713;28;45535;-52
2021/06/20 05:13:49;;;;;;;;;2.75;2.75;;;;;19.22;100.00;100485.81;4956452;28;46081;-53
2021/06/20 05:16:15;;;;;;;;;3.75;3.00;;;;;19.22;100.00;100478.72;4941719;28;45313;-52
2021/06/20 05:18:40;;;;;;;;;2.25;1.75;;;;;19.22;100.00;100494.69;4942044;28;45203;-52
2021/06/20 05:21:06;;;;;;;;;4.50;3.50;;;;;19.17;100.00;100488.75;4941198;28;45539;-52
2021/06/20 05:23:31;;;;;;;;;2.50;2.50;;;;;19.14;100.00;100489.78;4941821;28;45334;-53
2021/06/20 05:25:57;;;;;;;;;2.75;1.75;;;;;19.13;100.00;100482.75;4956456;28;45792;-53
2021/06/20 05:28:22;;;;;;;;;5.00;3.00;;;;;19.20;100.00;100471.75;4941553;28;45234;-52
2021/06/20 05:30:48;;;;;;;;;3.25;3.25;;;;;19.20;100.00;100472.59;4941590;28;45527;-53
2021/06/20 05:33:15;;;;;;;;;4.00;3.25;;;;;19.22;100.00;100477.84;4941562;28;46446;-52
2021/06/20 05:35:41;;;;;;;;;6.50;3.75;;;;;19.22;100.00;100469.84;4941041;28;45341;-51
2021/06/20 05:38:06;;;;;;;;;5.50;4.50;;;;;19.27;100.00;100476.66;4941471;28;45370;-54
2021/06/20 05:40:34;;;;;;;;;7.00;5.00;;;;;19.28;100.00;100477.50;4941264;28;45302;-55
2021/06/20 05:42:59;;;;;;;;;4.25;2.75;;;;;19.30;100.00;100480.97;4956258;28;47154;-53
2021/06/20 05:45:24;;;;;;;;;3.25;3.25;;;;;19.29;100.00;100481.91;4941155;28;45257;-52
2021/06/20 05:47:50;;;;;;;;;5.25;4.00;;;;;19.25;100.00;100483.88;4941605;28;45451;-52
2021/06/20 05:50:15;;;;;;;;;4.25;4.25;;;;;19.35;100.00;100480.72;4940960;28;45183;-53
2021/06/20 05:52:40;;;;;;;;;3.25;3.00;;;;;19.35;100.00;100488.72;4941328;28;46903;-52
2021/06/20 05:55:07;;;;;;;;;3.50;2.75;;;;;19.36;100.00;100485.94;4941158;28;45230;-52
2021/06/20 05:57:32;;;;;;;;;3.00;2.25;;;;;19.39;100.00;100496.41;4941284;28;45425;-52
2021/06/20 05:59:58;;;;;;;;;4.00;4.00;;;;;19.39;100.00;100507.09;4940954;28;45204;-52
2021/06/20 06:02:23;;;;;;;;;3.25;3.00;;;;;19.41;100.00;100496.38;4941338;28;45234;-52
2021/06/20 06:04:49;;;;;;;;;3.00;3.00;;;;;19.43;100.00;100483.78;4940864;28;45315;-53
2021/06/20 06:07:15;;;;;;;;;2.75;2.75;;;;;19.48;100.00;100492.38;4941285;28;45282;-52
2021/06/20 06:09:40;;;;;;;;;3.00;2.75;;;;;19.50;100.00;100490.50;4939675;28;45353;-53
2021/06/20 06:12:06;;;;;;;;;3.50;3.50;;;;;19.52;100.00;100493.09;4940863;28;46254;-53
2021/06/20 06:14:32;;;;;;;;;5.75;4.00;;;;;19.55;100.00;100498.25;4942208;28;45301;-53
2021/06/20 06:16:57;;;;;;;;;4.25;4.00;;;;;19.54;100.00;100504.53;4944338;28;45318;-51
2021/06/20 06:19:23;;;;;;;;;6.50;4.50;;;;;19.46;100.00;100484.50;4942829;28;45333;-52
2021/06/20 06:21:48;;;;;;;;;7.00;6.25;;;;;19.57;100.00;100504.34;4944271;28;45334;-52
2021/06/20 06:24:14;;;;;;;;;6.50;6.50;;;;;19.55;100.00;100487.59;4944179;28;45271;-52
2021/06/20 06:26:39;;;;;;;;;4.75;4.00;;;;;19.57;100.00;100491.91;4944256;28;45338;-55
2021/06/20 06:29:06;;;;;;;;;5.00;3.00;;;;;19.60;100.00;100491.72;4944051;28;45437;-50
2021/06/20 06:31:32;;;;;;;;;3.50;3.50;;;;;19.60;100.00;100489.06;4944071;28;45309;-53
2021/06/20 06:33:58;;;;;;;;;4.00;4.00;;;;;19.60;100.00;100491.72;4942547;28;45283;-53
2021/06/20 06:36:23;;;;;;;;;4.00;4.00;;;;;19.70;100.00;100483.19;4944223;28;45256;-53
2021/06/20 06:38:48;;;;;;;;;9.25;7.50;;;;;19.75;100.00;100482.00;4944032;28;45366;-53
2021/06/20 06:41:18;;;;;;;;;5.25;5.25;;;;;19.84;100.00;100479.81;4943935;28;46126;-53
2021/06/20 06:43:43;;;;;;;;;4.75;2.75;;;;;19.86;100.00;100484.09;4943744;28;45331;-54
2021/06/20 06:46:09;;;;;;;;;6.25;4.00;;;;;19.90;100.00;100487.41;4944086;28;45309;-52
2021/06/20 06:48:34;;;;;;;;;7.25;5.25;;;;;19.92;100.00;100489.06;4943944;28;45389;-50
2021/06/20 06:50:59;;;;;;;;;5.25;4.00;;;;;19.95;100.00;100478.22;4943469;28;46205;-53
2021/06/20 06:53:25;;;;;;;;;4.00;4.00;;;;;19.99;100.00;100486.91;4943746;28;45358;-54
2021/06/20 06:55:50;;;;;;;;;7.75;6.00;;;;;20.03;100.00;100499.09;4943979;28;45221;-50
2021/06/20 06:58:15;;;;;;;;;6.25;5.75;;;;;20.05;100.00;100497.22;4943696;28;45477;-54
2021/06/20 07:00:41;;;;;;;;;3.00;1.75;;;;;20.08;100.00;100506.84;4942435;28;48139;-53
2021/06/20 07:03:06;;;;;;;;;3.00;3.00;;;;;20.08;100.00;100506.84;4943622;28;45182;-52
2021/06/20 07:05:32;;;;;;;;;5.00;5.00;;;;;20.10;100.00;100499.59;4943578;28;45301;-54
2021/06/20 07:07:57;;;;;;;;;4.00;4.00;;;;;20.13;100.00;100505.63;4943451;28;45180;-53
2021/06/20 07:10:23;;;;;;;;;6.25;4.50;;;;;20.12;100.00;100513.72;4943503;28;46097;-52
2021/06/20 07:12:49;;;;;;;;;5.25;4.75;;;;;20.16;100.00;100507.25;4943220;28;45611;-53
2021/06/20 07:15:15;;;;;;;;;4.25;4.00;;;;;20.20;100.00;100514.16;4943615;28;45168;-51
2021/06/20 07:17:40;;;;;;;;;2.00;2.00;;;;;20.22;100.00;100506.06;4943483;28;45414;-53
2021/06/20 07:20:09;;;;;;;;;3.00;3.00;;;;;20.21;100.00;100512.31;4942844;28;46372;-52
2021/06/20 07:22:36;;;;;;;;;8.50;5.00;;;;;20.25;100.00;100508.53;4943283;28;46173;-53
2021/06/20 07:25:02;;;;;;;;;3.75;3.75;;;;;20.28;100.00;100508.34;4943127;28;45167;-46
2021/06/20 07:27:27;;;;;;;;;6.00;6.00;;;;;20.30;100.00;100503.78;4942701;28;45479;-47
2021/06/20 07:29:52;;;;;;;;;3.00;3.00;;;;;20.33;100.00;100506.28;4943329;28;45288;-48
2021/06/20 07:32:18;;;;;;;;;4.75;4.75;;;;;20.37;100.00;100507.81;4943146;28;45245;-46
2021/06/20 07:34:43;;;;;;;;;4.75;4.00;;;;;20.39;100.00;100502.38;4943371;28;45163;-49
2021/06/20 07:37:09;;;;;;;;;7.25;4.50;;;;;20.42;100.00;100513.72;4942852;28;45549;-47
2021/06/20 07:39:34;;;;;;;;;6.00;5.00;;;;;20.45;100.00;100499.34;4943125;28;46301;-49
2021/06/20 07:42:00;;;;;;;;;4.25;4.25;;;;;20.48;100.00;100501.84;4942754;28;45176;-50
2021/06/20 07:44:26;;;;;;;;;5.25;5.25;;;;;20.46;100.00;100506.41;4943494;28;45360;-47
2021/06/20 07:46:51;;;;;;;;;4.50;4.00;;;;;20.51;100.00;100514.16;4942651;28;45361;-49
2021/06/20 07:49:16;;;;;;;;;8.00;4.50;;;;;20.54;100.00;100500.59;4942819;28;46062;-47
2021/06/20 07:51:42;;;;;;;;;4.25;4.00;;;;;20.52;100.00;100497.19;4942722;28;45468;-48
2021/06/20 07:54:08;;;;;;;;;4.75;4.00;;;;;20.56;100.00;100504.91;4943017;28;45302;-49
2021/06/20 07:56:33;;;;;;;;;6.25;5.00;;;;;20.60;100.00;100492.22;4942576;28;45532;-47
2021/06/20 07:58:59;;;;;;;;;5.00;5.00;;;;;20.61;100.00;100494.81;4942736;28;45338;-46
2021/06/20 08:01:25;;;;;;;;;4.00;4.00;;;;;20.65;100.00;100487.47;4942599;28;45578;-47
2021/06/20 08:03:50;;;;;;;;;5.25;4.50;;;;;20.67;100.00;100485.56;4942625;28;45298;-49
2021/06/20 08:06:16;;;;;;;;;5.25;5.25;;;;;20.68;100.00;100484.63;4942591;28;45278;-48
2021/06/20 08:08:41;;;;;;;;;3.00;3.00;;;;;20.69;100.00;100491.69;4942653;28;45638;-49
2021/06/20 08:11:06;;;;;;;;;4.25;3.00;;;;;20.73;100.00;100484.41;4942555;28;45235;-49
2021/06/20 08:13:32;;;;;;;;;4.50;4.00;;;;;20.76;100.00;100482.38;4941532;28;45365;-45
2021/06/20 08:15:57;;;;;;;;;4.75;4.75;;;;;20.78;100.00;100482.31;4941093;28;45497;-48
2021/06/20 08:18:23;;;;;;;;;4.00;4.00;;;;;20.82;100.00;100481.16;4942300;28;45235;-46
2021/06/20 08:20:49;;;;;;;;;2.00;2.00;;;;;20.84;100.00;100486.38;4942116;28;45230;-48
2021/06/20 08:23:14;;;;;;;;;4.75;4.75;;;;;20.87;100.00;100489.72;4942699;28;45227;-47
2021/06/20 08:25:39;;;;;;;;;4.00;4.00;;;;;20.88;100.00;100494.13;4941085;28;45264;-48
2021/06/20 08:28:05;;;;;;;;;4.75;3.25;;;;;20.90;100.00;100494.88;4956880;28;47666;-49
2021/06/20 08:30:31;;;;;;;;;3.50;3.50;;;;;20.92;100.00;100492.97;4942152;28;45339;-49
2021/06/20 08:32:56;;;;;;;;;4.00;4.00;;;;;20.99;100.00;100497.94;4942564;28;45321;-49
2021/06/20 08:35:21;;;;;;;;;4.75;3.00;;;;;20.99;100.00;100487.25;4942101;28;45379;-48
2021/06/20 08:37:48;;;;;;;;;6.00;6.00;;;;;21.06;100.00;100493.94;4941367;28;45347;-45
2021/06/20 08:40:14;;;;;;;;;10.50;10.50;;;;;21.12;100.00;100485.56;4942187;28;45258;-47
2021/06/20 08:42:39;;;;;;;;;9.50;8.50;;;;;21.18;100.00;100489.63;4942241;28;45431;-50
2021/06/20 08:45:06;;;;;;;;;5.00;5.00;;;;;21.24;100.00;100491.94;4942155;28;45416;-45
2021/06/20 08:47:34;;;;;;;;;4.00;4.00;;;;;21.27;100.00;100487.25;4942039;28;45512;-48
2021/06/20 08:49:59;;;;;;;;;6.25;5.25;;;;;21.32;100.00;100492.31;4941644;28;45183;-47
2021/06/20 08:52:24;;;;;;;;;4.00;4.00;;;;;21.37;100.00;100492.00;4942051;28;45228;-45
2021/06/20 08:55:03;;;;;;;;;3.25;3.25;;;;;21.42;100.00;100487.22;4942027;28;45421;-46
2021/06/20 08:57:32;;;;;;;;;4.00;4.00;;;;;21.42;100.00;100485.41;4941689;28;45282;-47
2021/06/20 08:59:57;;;;;;;;;3.00;3.00;;;;;21.48;100.00;100481.47;4941646;28;45191;-45
2021/06/20 09:02:27;;;;;;;;;5.00;2.75;;;;;21.50;100.00;100474.22;4942010;28;45303;-47
2021/06/20 09:04:58;;;;;;;;;3.75;3.25;;;;;21.55;100.00;100471.28;4941597;28;45343;-48
2021/06/20 09:07:38;;;;;;;;;4.50;2.00;;;;;21.60;100.00;100442.44;4941640;28;46336;-48
2021/06/20 09:10:11;;;;;;;;;7.75;6.50;;;;;21.66;100.00;100444.72;4941500;28;45345;-45
2021/06/20 09:12:58;;;;;;;;;2.00;2.00;;;;;21.69;100.00;100435.66;4940291;28;45359;-48
2021/06/20 09:15:26;;;;;;;;;3.25;3.00;;;;;21.74;100.00;100436.19;4941689;28;45471;-49
2021/06/20 09:17:53;;;;;;;;;4.25;2.25;;;;;21.79;100.00;100434.06;4941437;28;46262;-49
2021/06/20 09:20:29;;;;;;;;;2.00;2.00;;;;;21.81;100.00;100425.94;4956341;28;45871;-45
2021/06/20 09:22:56;;;;;;;;;2.00;2.00;;;;;21.86;100.00;100429.16;4941711;28;45456;-52
2021/06/20 09:25:26;;;;;;;;;5.75;4.75;;;;;21.89;100.00;100418.28;4941651;28;45405;-49
2021/06/20 09:28:00;;;;;;;;;4.00;3.00;;;;;21.95;100.00;100408.97;4941017;28;45272;-50
2021/06/20 09:30:29;;;;;;;;;2.33;2.33;;;;;21.98;100.00;100404.28;4941368;28;45283;-45
2021/06/20 09:33:00;;;;;;;;;2.67;2.33;;;;;22.02;100.00;100402.25;4941709;28;45250;-47
2021/06/20 09:35:30;;;;;;;;;4.25;3.50;;;;;22.08;100.00;100405.34;4941134;28;45335;-45
2021/06/20 09:37:58;;;;;;;;;2.75;2.75;;;;;22.13;100.00;100404.22;4941217;28;46300;-46
2021/06/20 09:40:29;;;;;;;;;4.75;3.75;;;;;22.18;100.00;100402.06;4941157;28;45369;-45
2021/06/20 09:42:55;;;;;;;;;3.00;3.00;;;;;22.23;100.00;100399.94;4941413;28;45260;-45
2021/06/20 09:45:31;;;;;;;;;3.75;3.00;;;;;;;;4941282;28;45505;-46
2021/06/20 09:47:58;;;;;;;;;3.00;3.00;;;;;22.35;100.00;100412.47;4941771;28;46455;-49
2021/06/20 09:51:13;;;;;;;;;3.25;3.25;;;;;22.43;100.00;100417.31;4944185;28;45362;-47
2021/06/20 09:53:40;;;;;;;;;3.00;3.00;;;;;22.49;100.00;100413.34;4942506;28;45334;-50
2021/06/20 09:56:13;;;;;;;;;3.75;3.25;;;;;22.53;100.00;100407.69;4943549;28;45480;-46
2021/06/20 09:58:42;;;;;;;;;3.00;3.00;;;;;22.58;100.00;100402.03;4944199;28;45313;-46
2021/06/20 10:01:17;;;;;;;;;3.25;3.25;;;;;22.67;100.00;100408.56;4944438;28;45358;-48
2021/06/20 10:03:44;;;;;;;;;4.00;4.00;;;;;22.72;100.00;100406.41;4944397;28;45220;-46
2021/06/20 10:06:12;;;;;;;;;2.75;2.75;;;;;22.78;100.00;100416.69;4944518;28;45505;-47
2021/06/20 10:08:39;;;;;;;;;2.50;2.50;;;;;22.81;100.00;100421.81;4959250;28;45513;-49
2021/06/20 10:11:04;;;;;;;;;4.25;4.25;;;;;22.91;100.00;100416.66;4944343;28;45353;-47
2021/06/20 10:13:30;;;;;;;;;4.75;3.50;;;;;23.02;100.00;100407.88;4944375;28;45339;-46
2021/06/20 10:16:11;;;;;;;;;3.25;3.25;;;;;23.08;100.00;100406.56;4944513;28;45341;-47
2021/06/20 10:18:40;;;;;;;;;6.25;5.00;;;;;23.13;100.00;100401.72;4944145;28;46133;-46
2021/06/20 10:21:05;;;;;;;;;7.50;5.25;;;;;23.25;100.00;100408.06;4943890;28;45311;-46
2021/06/20 10:23:30;;;;;;;;;11.50;11.50;;;;;23.34;100.00;100405.53;4944482;28;45235;-46
2021/06/20 10:26:08;;;;;;;;;8.75;8.00;;;;;23.42;100.00;100388.91;4944101;28;45580;-47
2021/06/20 10:28:34;;;;;;;;;4.00;4.00;;;;;23.54;100.00;100389.81;4943958;28;46132;-48
2021/06/20 10:31:07;;;;;;;;;4.50;4.50;;;;;23.64;100.00;100390.00;4943890;28;45235;-45
2021/06/20 10:33:34;;;;;;;;;5.00;5.00;;;;;23.79;100.00;100374.56;4943981;28;45258;-46
2021/06/20 10:36:09;;;;;;;;;3.50;3.50;;;;;23.96;100.00;100381.34;4943856;28;45192;-50
2021/06/20 10:38:37;;;;;;;;;5.75;3.00;;;;;24.11;100.00;100374.81;4942435;28;47600;-46
2021/06/20 10:41:05;;;;;;;;;4.25;2.00;;;;;24.23;100.00;100366.81;4943757;28;45416;-48
2021/06/20 10:43:30;;;;;;;;;2.00;2.00;;;;;24.42;100.00;100345.56;4943932;28;45326;-47
2021/06/20 10:45:56;;;;;;;;;4.00;3.00;;;;;24.64;100.00;100338.50;4944052;28;45306;-49
2021/06/20 10:48:23;;;;;;;;;3.00;3.00;;;;;24.85;100.00;100317.13;4943786;28;46129;-46
2021/06/20 10:50:55;;;;;;;;;3.00;3.00;;;;;25.15;100.00;100321.81;4942290;28;45341;-47
2021/06/20 10:53:22;;;;;;;;;3.00;2.75;;;;;25.44;100.00;100318.59;4943917;28;45353;-46
2021/06/20 10:55:56;;;;;;;;;3.00;3.00;;;;;25.73;100.00;100317.13;4943971;28;45416;-48
2021/06/20 10:58:30;;;;;;;;;4.50;3.75;;;;;26.01;100.00;100321.00;4943401;28;46005;-49
2021/06/20 11:01:10;;;;;;;;;3.25;3.25;;;;;26.31;100.00;100319.34;4941725;28;45744;-46
2021/06/20 11:03:37;;;;;;;;;5.25;4.00;;;;;26.60;100.00;100314.09;4943471;28;45382;-46
2021/06/20 11:06:02;;;;;;;;;5.00;5.00;;;;;26.83;100.00;100322.00;4943630;28;45596;-49
2021/06/20 11:08:29;;;;;;;;;4.75;4.75;;;;;27.08;100.00;100315.25;4943342;28;45370;-50
2021/06/20 11:11:23;;;;;;;;;6.25;4.25;;;;;27.36;100.00;100299.22;4943476;28;45460;-47
2021/06/20 11:14:08;;;;;;;;;4.50;4.50;;;;;27.63;100.00;100283.34;4943510;28;45492;-46
2021/06/20 11:16:39;;;;;;;;;6.75;5.00;;;;;27.79;100.00;100271.97;4943251;28;45300;-45
2021/06/20 11:19:05;;;;;;;;;3.75;3.75;;;;;27.89;100.00;100273.63;4942980;28;45597;-46